sensor_id;sensor_type;location;lat;lon;timestamp;pressure;altitude;pressure_sealevel;temperature;humidity
55317;BME280;41178;48.956;8.130;2024-03-02T00:02:02;98591.22;;;10.93;41.38
55317;BME280;41178;48.956;8.130;2024-03-02T00:07:03;98619.78;;;9.29;44.31
55317;BME280;41178;48.956;8.130;2024-03-02T00:12:06;98500.88;;;11.39;41.76
55317;BME280;41178;48.956;8.130;2024-03-02T00:17:17;98685.53;;;9.63;42.20
55317;BME280;41178;48.956;8.130;2024-03-02T00:22:22;98602.03;;;10.73;41.67
55317;BME280;41178;48.956;8.130;2024-03-02T00:27:24;98640.13;;;9.76;42.67
55317;BME280;41178;48.956;8.130;2024-03-02T00:32:26;98560.75;;;11.44;40.61
55317;BME280;41178;48.956;8.130;2024-03-02T00:37:29;98633.06;;;10.81;41.07
55317;BME280;41178;48.956;8.130;2024-03-02T00:42:31;98522.34;;;9.91;43.41
55317;BME280;41178;48.956;8.130;2024-03-02T00:47:38;98665.16;;;10.87;40.55
55317;BME280;41178;48.956;8.130;2024-03-02T00:52:40;98563.53;;;9.30;44.12
55317;BME280;41178;48.956;8.130;2024-03-02T00:57:42;98601.91;;;11.25;40.70
55317;BME280;41178;48.956;8.130;2024-03-02T01:02:45;98623.78;;;10.90;41.25
55317;BME280;41178;48.956;8.130;2024-03-02T01:07:47;98688.22;;;9.90;41.86
55317;BME280;41178;48.956;8.130;2024-03-02T01:12:49;98570.06;;;9.88;42.50
55317;BME280;41178;48.956;8.130;2024-03-02T01:17:51;98574.47;;;11.04;40.72
55317;BME280;41178;48.956;8.130;2024-03-02T01:22:56;98584.53;;;10.25;42.08
55317;BME280;41178;48.956;8.130;2024-03-02T01:27:58;98550.41;;;10.98;40.99
55317;BME280;41178;48.956;8.130;2024-03-02T01:32:59;98577.59;;;11.26;40.07
55317;BME280;41178;48.956;8.130;2024-03-02T01:38:03;98571.38;;;11.33;40.00
55317;BME280;41178;48.956;8.130;2024-03-02T01:43:07;98695.00;;;9.66;42.04
55317;BME280;41178;48.956;8.130;2024-03-02T01:48:09;98529.31;;;9.99;42.18
55317;BME280;41178;48.956;8.130;2024-03-02T01:53:11;98574.97;;;9.77;42.09
55317;BME280;41178;48.956;8.130;2024-03-02T01:58:12;98622.88;;;9.66;41.71
55317;BME280;41178;48.956;8.130;2024-03-02T02:03:14;98564.97;;;10.31;40.73
55317;BME280;41178;48.956;8.130;2024-03-02T02:08:16;98611.47;;;8.77;43.08
55317;BME280;41178;48.956;8.130;2024-03-02T02:13:18;98532.09;;;7.76;45.27
55317;BME280;41178;48.956;8.130;2024-03-02T02:18:19;98401.72;;;9.81;42.38
55317;BME280;41178;48.956;8.130;2024-03-02T02:23:21;98465.09;;;9.61;42.56
55317;BME280;41178;48.956;8.130;2024-03-02T02:28:23;98457.56;;;9.17;43.28
55317;BME280;41178;48.956;8.130;2024-03-02T02:33:24;98429.06;;;10.54;41.23
55317;BME280;41178;48.956;8.130;2024-03-02T02:38:26;98504.56;;;9.58;42.27
55317;BME280;41178;48.956;8.130;2024-03-02T02:43:28;98478.53;;;8.94;42.90
55317;BME280;41178;48.956;8.130;2024-03-02T02:48:30;98453.47;;;8.68;42.75
55317;BME280;41178;48.956;8.130;2024-03-02T02:53:31;98439.53;;;9.06;42.62
55317;BME280;41178;48.956;8.130;2024-03-02T02:58:33;98421.34;;;9.55;42.14
55317;BME280;41178;48.956;8.130;2024-03-02T03:03:35;98437.69;;;9.07;42.23
55317;BME280;41178;48.956;8.130;2024-03-02T03:08:36;98446.41;;;8.07;43.47
55317;BME280;41178;48.956;8.130;2024-03-02T03:13:38;98430.78;;;9.64;41.19
55317;BME280;41178;48.956;8.130;2024-03-02T03:18:40;98510.94;;;9.44;41.01
55317;BME280;41178;48.956;8.130;2024-03-02T03:23:41;98527.78;;;9.18;41.32
55317;BME280;41178;48.956;8.130;2024-03-02T03:28:43;98448.13;;;9.93;40.75
55317;BME280;41178;48.956;8.130;2024-03-02T03:33:45;98543.38;;;9.14;40.96
55317;BME280;41178;48.956;8.130;2024-03-02T03:38:46;98442.00;;;8.61;42.45
55317;BME280;41178;48.956;8.130;2024-03-02T03:43:48;98379.84;;;10.86;39.30
55317;BME280;41178;48.956;8.130;2024-03-02T03:48:50;98528.63;;;9.18;41.44
55317;BME280;41178;48.956;8.130;2024-03-02T03:53:52;98479.44;;;9.66;40.51
55317;BME280;41178;48.956;8.130;2024-03-02T03:58:53;98518.75;;;7.76;43.75
55317;BME280;41178;48.956;8.130;2024-03-02T04:03:55;98400.75;;;8.97;42.23
55317;BME280;41178;48.956;8.130;2024-03-02T04:08:57;98510.25;;;7.87;43.46
55317;BME280;41178;48.956;8.130;2024-03-02T04:13:58;98386.56;;;8.23;43.62
55317;BME280;41178;48.956;8.130;2024-03-02T04:19:00;98393.56;;;8.91;42.40
55317;BME280;41178;48.956;8.130;2024-03-02T04:24:02;98388.22;;;8.64;43.20
55317;BME280;41178;48.956;8.130;2024-03-02T04:29:03;98496.88;;;8.35;43.31
55317;BME280;41178;48.956;8.130;2024-03-02T04:34:05;98447.41;;;9.59;41.17
55317;BME280;41178;48.956;8.130;2024-03-02T04:39:07;98473.59;;;8.91;41.88
55317;BME280;41178;48.956;8.130;2024-03-02T04:44:11;98423.81;;;9.50;41.14
55317;BME280;41178;48.956;8.130;2024-03-02T04:49:12;98509.69;;;8.80;41.53
55317;BME280;41178;48.956;8.130;2024-03-02T04:54:14;98506.16;;;7.91;42.96
55317;BME280;41178;48.956;8.130;2024-03-02T04:59:17;98412.94;;;9.45;40.95
55317;BME280;41178;48.956;8.130;2024-03-02T05:04:21;98470.47;;;8.34;42.78
55317;BME280;41178;48.956;8.130;2024-03-02T05:09:23;98402.16;;;8.33;42.96
55317;BME280;41178;48.956;8.130;2024-03-02T05:14:25;98460.47;;;9.09;41.62
55317;BME280;41178;48.956;8.130;2024-03-02T05:19:26;98521.28;;;7.84;43.41
55317;BME280;41178;48.956;8.130;2024-03-02T05:24:28;98356.91;;;6.81;45.83
55317;BME280;41178;48.956;8.130;2024-03-02T05:29:30;98400.94;;;8.75;42.71
55317;BME280;41178;48.956;8.130;2024-03-02T05:34:31;98481.53;;;8.31;43.11
55317;BME280;41178;48.956;8.130;2024-03-02T05:39:36;98462.47;;;8.47;42.89
55317;BME280;41178;48.956;8.130;2024-03-02T05:44:38;98436.84;;;8.39;43.00
55317;BME280;41178;48.956;8.130;2024-03-02T05:49:40;98488.13;;;8.55;42.19
55317;BME280;41178;48.956;8.130;2024-03-02T05:54:41;98438.88;;;8.64;42.45
55317;BME280;41178;48.956;8.130;2024-03-02T05:59:43;98532.72;;;8.19;42.85
55317;BME280;41178;48.956;8.130;2024-03-02T06:04:45;98510.13;;;7.10;45.18
55317;BME280;41178;48.956;8.130;2024-03-02T06:09:47;98428.81;;;8.33;43.19
55317;BME280;41178;48.956;8.130;2024-03-02T06:14:52;98501.31;;;6.81;45.38
55317;BME280;41178;48.956;8.130;2024-03-02T06:19:54;98359.22;;;9.21;42.03
55317;BME280;41178;48.956;8.130;2024-03-02T06:24:55;98471.47;;;8.26;42.91
55317;BME280;41178;48.956;8.130;2024-03-02T06:29:57;98539.25;;;8.17;42.74
55317;BME280;41178;48.956;8.130;2024-03-02T06:34:59;98390.28;;;8.22;43.94
55317;BME280;41178;48.956;8.130;2024-03-02T06:40:01;98425.69;;;9.43;41.70
55317;BME280;41178;48.956;8.130;2024-03-02T06:45:04;98459.22;;;9.25;42.26
55317;BME280;41178;48.956;8.130;2024-03-02T06:50:06;98421.06;;;9.11;42.76
55317;BME280;41178;48.956;8.130;2024-03-02T06:55:08;98507.06;;;9.07;42.10
55317;BME280;41178;48.956;8.130;2024-03-02T07:00:10;98417.31;;;9.26;42.62
55317;BME280;41178;48.956;8.130;2024-03-02T07:05:12;98399.28;;;10.18;41.58
55317;BME280;41178;48.956;8.130;2024-03-02T07:10:14;98393.38;;;10.41;41.29
55317;BME280;41178;48.956;8.130;2024-03-02T07:15:16;98496.41;;;8.87;43.56
55317;BME280;41178;48.956;8.130;2024-03-02T07:20:36;98394.41;;;9.56;43.29
55317;BME280;41178;48.956;8.130;2024-03-02T07:25:40;98459.16;;;8.32;45.36
55317;BME280;41178;48.956;8.130;2024-03-02T07:30:45;98366.22;;;9.74;42.72
55317;BME280;41178;48.956;8.130;2024-03-02T07:35:47;98476.44;;;9.29;43.13
55317;BME280;41178;48.956;8.130;2024-03-02T07:40:49;98399.38;;;10.37;41.86
55317;BME280;41178;48.956;8.130;2024-03-02T07:45:54;98451.66;;;9.81;42.89
55317;BME280;41178;48.956;8.130;2024-03-02T07:50:57;98526.53;;;10.26;42.11
55317;BME280;41178;48.956;8.130;2024-03-02T07:55:59;98488.75;;;11.92;39.94
55317;BME280;41178;48.956;8.130;2024-03-02T08:01:04;98547.75;;;10.14;43.25
55317;BME280;41178;48.956;8.130;2024-03-02T08:06:06;98510.31;;;10.91;42.56
55317;BME280;41178;48.956;8.130;2024-03-02T08:11:08;98443.44;;;11.10;42.62
55317;BME280;41178;48.956;8.130;2024-03-02T08:16:10;98474.75;;;11.34;41.58
55317;BME280;41178;48.956;8.130;2024-03-02T08:21:12;98463.88;;;11.48;41.96
55317;BME280;41178;48.956;8.130;2024-03-02T08:26:14;98488.59;;;10.74;43.13
55317;BME280;41178;48.956;8.130;2024-03-02T08:31:16;98589.97;;;10.50;42.15
55317;BME280;41178;48.956;8.130;2024-03-02T08:36:18;98547.09;;;9.40;44.45
55317;BME280;41178;48.956;8.130;2024-03-02T08:41:21;98360.31;;;11.04;43.54
55317;BME280;41178;48.956;8.130;2024-03-02T08:46:22;98523.75;;;11.10;42.67
55317;BME280;41178;48.956;8.130;2024-03-02T08:51:24;98574.78;;;9.66;44.37
55317;BME280;41178;48.956;8.130;2024-03-02T08:56:26;98461.69;;;9.20;46.04
55317;BME280;41178;48.956;8.130;2024-03-02T09:01:28;98364.75;;;10.17;44.98
55317;BME280;41178;48.956;8.130;2024-03-02T09:06:30;98528.84;;;11.43;42.35
55317;BME280;41178;48.956;8.130;2024-03-02T09:11:32;98392.75;;;12.00;42.09
55317;BME280;41178;48.956;8.130;2024-03-02T09:16:34;98452.72;;;11.88;42.30
55317;BME280;41178;48.956;8.130;2024-03-02T09:21:35;98392.75;;;12.43;42.01
55317;BME280;41178;48.956;8.130;2024-03-02T09:26:37;98560.06;;;11.05;42.80
55317;BME280;41178;48.956;8.130;2024-03-02T09:31:40;98449.91;;;13.56;40.58
55317;BME280;41178;48.956;8.130;2024-03-02T09:36:43;98420.28;;;13.80;40.17
55317;BME280;41178;48.956;8.130;2024-03-02T09:41:45;98575.06;;;12.19;40.42
55317;BME280;41178;48.956;8.130;2024-03-02T09:46:50;98462.41;;;14.15;38.78
55317;BME280;41178;48.956;8.130;2024-03-02T09:51:51;98532.63;;;11.97;41.11
55317;BME280;41178;48.956;8.130;2024-03-02T09:56:54;98529.09;;;13.89;39.08
55317;BME280;41178;48.956;8.130;2024-03-02T10:01:59;98496.53;;;13.74;38.74
55317;BME280;41178;48.956;8.130;2024-03-02T10:07:16;98611.72;;;12.44;40.37
55317;BME280;41178;48.956;8.130;2024-03-02T10:12:18;98521.88;;;14.59;38.15
55317;BME280;41178;48.956;8.130;2024-03-02T10:17:20;98599.03;;;13.65;38.99
55317;BME280;41178;48.956;8.130;2024-03-02T10:22:23;98522.19;;;13.10;40.66
55317;BME280;41178;48.956;8.130;2024-03-02T10:27:29;98536.22;;;13.95;39.02
55317;BME280;41178;48.956;8.130;2024-03-02T10:32:31;98514.63;;;13.66;39.65
55317;BME280;41178;48.956;8.130;2024-03-02T10:37:33;98494.75;;;13.79;39.84
55317;BME280;41178;48.956;8.130;2024-03-02T10:42:35;98533.59;;;13.72;39.03
55317;BME280;41178;48.956;8.130;2024-03-02T10:47:38;98503.19;;;14.69;37.94
55317;BME280;41178;48.956;8.130;2024-03-02T10:52:40;98488.00;;;14.17;38.78
55317;BME280;41178;48.956;8.130;2024-03-02T10:57:54;98554.53;;;14.22;36.87
55317;BME280;41178;48.956;8.130;2024-03-02T11:06:22;98468.19;;;13.83;37.90
55317;BME280;41178;48.956;8.130;2024-03-02T11:11:30;98502.25;;;13.65;38.34
55317;BME280;41178;48.956;8.130;2024-03-02T11:16:37;98423.09;;;14.76;39.18
55317;BME280;41178;48.956;8.130;2024-03-02T11:21:40;98520.13;;;13.72;38.68
55317;BME280;41178;48.956;8.130;2024-03-02T11:26:42;98580.53;;;14.04;37.44
55317;BME280;41178;48.956;8.130;2024-03-02T11:31:59;98473.38;;;13.73;38.46
55317;BME280;41178;48.956;8.130;2024-03-02T11:37:04;98449.84;;;14.20;37.37
55317;BME280;41178;48.956;8.130;2024-03-02T11:42:07;98481.09;;;15.35;36.91
55317;BME280;41178;48.956;8.130;2024-03-02T11:47:12;98428.84;;;15.36;36.58
55317;BME280;41178;48.956;8.130;2024-03-02T11:52:17;98448.63;;;13.99;37.44
55317;BME280;41178;48.956;8.130;2024-03-02T11:57:21;98456.97;;;15.06;37.71
55317;BME280;41178;48.956;8.130;2024-03-02T12:02:27;98384.06;;;15.13;37.68
55317;BME280;41178;48.956;8.130;2024-03-02T12:07:30;98367.75;;;16.46;35.54
55317;BME280;41178;48.956;8.130;2024-03-02T12:12:32;98500.09;;;14.77;36.49
55317;BME280;41178;48.956;8.130;2024-03-02T12:17:33;98442.94;;;14.87;35.91
55317;BME280;41178;48.956;8.130;2024-03-02T12:22:35;98451.03;;;15.43;36.23
55317;BME280;41178;48.956;8.130;2024-03-02T12:27:39;98379.69;;;15.51;36.95
55317;BME280;41178;48.956;8.130;2024-03-02T12:32:41;98406.28;;;15.86;36.68
55317;BME280;41178;48.956;8.130;2024-03-02T12:37:47;98352.09;;;16.85;34.75
55317;BME280;41178;48.956;8.130;2024-03-02T12:42:50;98475.47;;;15.37;36.15
55317;BME280;41178;48.956;8.130;2024-03-02T12:47:52;98360.91;;;15.34;36.04
55317;BME280;41178;48.956;8.130;2024-03-02T12:52:55;98371.22;;;16.14;36.20
55317;BME280;41178;48.956;8.130;2024-03-02T12:57:57;98328.94;;;16.24;35.42
55317;BME280;41178;48.956;8.130;2024-03-02T13:03:01;98313.59;;;17.10;35.07
55317;BME280;41178;48.956;8.130;2024-03-02T13:08:06;98323.66;;;17.20;34.51
55317;BME280;41178;48.956;8.130;2024-03-02T13:13:08;98447.91;;;15.96;34.80
55317;BME280;41178;48.956;8.130;2024-03-02T13:18:11;98341.31;;;16.90;34.95
55317;BME280;41178;48.956;8.130;2024-03-02T13:23:13;98444.78;;;15.21;35.99
55317;BME280;41178;48.956;8.130;2024-03-02T13:28:14;98297.53;;;16.88;35.22
55317;BME280;41178;48.956;8.130;2024-03-02T13:33:16;98278.34;;;17.48;34.38
55317;BME280;41178;48.956;8.130;2024-03-02T13:38:23;98385.88;;;16.50;35.50
55317;BME280;41178;48.956;8.130;2024-03-02T13:43:25;98381.00;;;16.47;35.35
55317;BME280;41178;48.956;8.130;2024-03-02T13:48:27;98302.41;;;16.86;35.23
55317;BME280;41178;48.956;8.130;2024-03-02T13:53:28;98423.63;;;15.29;36.24
55317;BME280;41178;48.956;8.130;2024-03-02T13:58:30;98292.31;;;16.71;34.86
55317;BME280;41178;48.956;8.130;2024-03-02T14:03:32;98355.44;;;16.28;34.76
55317;BME280;41178;48.956;8.130;2024-03-02T14:08:33;98318.28;;;15.80;36.16
55317;BME280;41178;48.956;8.130;2024-03-02T14:13:37;98280.44;;;17.25;34.39
55317;BME280;41178;48.956;8.130;2024-03-02T14:18:39;98322.53;;;18.10;32.96
55317;BME280;41178;48.956;8.130;2024-03-02T14:23:41;98305.75;;;17.77;32.79
55317;BME280;41178;48.956;8.130;2024-03-02T14:28:42;98318.72;;;17.70;33.88
55317;BME280;41178;48.956;8.130;2024-03-02T14:33:52;98321.81;;;16.83;34.17
55317;BME280;41178;48.956;8.130;2024-03-02T14:38:55;98289.16;;;17.48;33.92
55317;BME280;41178;48.956;8.130;2024-03-02T14:43:57;98305.84;;;17.24;34.28
55317;BME280;41178;48.956;8.130;2024-03-02T14:48:59;98325.69;;;16.22;34.68
55317;BME280;41178;48.956;8.130;2024-03-02T14:54:01;98245.91;;;17.58;33.73
55317;BME280;41178;48.956;8.130;2024-03-02T14:59:04;98251.00;;;17.39;34.41
55317;BME280;41178;48.956;8.130;2024-03-02T15:04:06;98322.25;;;16.65;34.97
55317;BME280;41178;48.956;8.130;2024-03-02T15:09:08;98338.75;;;16.68;34.94
55317;BME280;41178;48.956;8.130;2024-03-02T15:14:09;98283.34;;;16.23;35.76
55317;BME280;41178;48.956;8.130;2024-03-02T15:19:11;98229.31;;;16.55;35.79
55317;BME280;41178;48.956;8.130;2024-03-02T15:24:13;98264.84;;;16.85;35.04
55317;BME280;41178;48.956;8.130;2024-03-02T15:29:19;98257.59;;;16.48;35.64
55317;BME280;41178;48.956;8.130;2024-03-02T15:34:26;98244.94;;;16.16;35.54
55317;BME280;41178;48.956;8.130;2024-03-02T15:39:28;98253.91;;;15.89;35.97
55317;BME280;41178;48.956;8.130;2024-03-02T15:44:30;98156.66;;;15.68;36.84
55317;BME280;41178;48.956;8.130;2024-03-02T15:49:33;98169.09;;;15.69;36.61
55317;BME280;41178;48.956;8.130;2024-03-02T15:54:35;98137.31;;;16.19;36.06
55317;BME280;41178;48.956;8.130;2024-03-02T15:59:36;98168.78;;;15.11;37.15
55317;BME280;41178;48.956;8.130;2024-03-02T16:04:38;98129.81;;;15.84;36.56
55317;BME280;41178;48.956;8.130;2024-03-02T16:09:40;98142.63;;;16.47;35.68
55317;BME280;41178;48.956;8.130;2024-03-02T16:14:41;98117.50;;;15.98;36.97
55317;BME280;41178;48.956;8.130;2024-03-02T16:19:43;98187.09;;;15.09;37.89
55317;BME280;41178;48.956;8.130;2024-03-02T16:24:45;98111.84;;;15.57;37.49
55317;BME280;41178;48.956;8.130;2024-03-02T16:29:46;98083.81;;;15.63;37.27
55317;BME280;41178;48.956;8.130;2024-03-02T16:34:49;98131.66;;;15.13;37.78
55317;BME280;41178;48.956;8.130;2024-03-02T16:39:50;98105.06;;;14.95;38.14
55317;BME280;41178;48.956;8.130;2024-03-02T16:44:52;98094.31;;;15.60;37.15
55317;BME280;41178;48.956;8.130;2024-03-02T16:49:56;98062.84;;;15.70;37.30
55317;BME280;41178;48.956;8.130;2024-03-02T16:55:01;98047.22;;;15.73;37.78
55317;BME280;41178;48.956;8.130;2024-03-02T17:00:06;98042.31;;;15.64;38.16
55317;BME280;41178;48.956;8.130;2024-03-02T17:05:09;98043.22;;;14.56;39.27
55317;BME280;41178;48.956;8.130;2024-03-02T17:10:11;98082.38;;;14.91;38.68
55317;BME280;41178;48.956;8.130;2024-03-02T17:15:13;98048.06;;;14.54;39.50
55317;BME280;41178;48.956;8.130;2024-03-02T17:20:16;98051.09;;;14.63;39.46
55317;BME280;41178;48.956;8.130;2024-03-02T17:25:17;98029.56;;;14.35;40.04
55317;BME280;41178;48.956;8.130;2024-03-02T17:30:19;98085.34;;;14.89;38.84
55317;BME280;41178;48.956;8.130;2024-03-02T17:35:22;98081.84;;;14.00;40.51
55317;BME280;41178;48.956;8.130;2024-03-02T17:40:24;98086.38;;;13.61;41.01
55317;BME280;41178;48.956;8.130;2024-03-02T17:45:29;98039.94;;;14.49;40.10
55317;BME280;41178;48.956;8.130;2024-03-02T17:50:31;98100.75;;;14.94;38.78
55317;BME280;41178;48.956;8.130;2024-03-02T17:55:33;98043.13;;;15.65;38.03
55317;BME280;41178;48.956;8.130;2024-03-02T18:00:34;98010.63;;;15.92;38.04
55317;BME280;41178;48.956;8.130;2024-03-02T18:05:36;98048.47;;;16.07;37.46
55317;BME280;41178;48.956;8.130;2024-03-02T18:10:38;98065.72;;;16.01;37.70
55317;BME280;41178;48.956;8.130;2024-03-02T18:15:40;98070.13;;;15.38;38.44
55317;BME280;41178;48.956;8.130;2024-03-02T18:20:41;97997.34;;;15.75;38.59
55317;BME280;41178;48.956;8.130;2024-03-02T18:25:44;98123.09;;;14.28;39.46
55317;BME280;41178;48.956;8.130;2024-03-02T18:30:48;98105.03;;;14.68;38.93
55317;BME280;41178;48.956;8.130;2024-03-02T18:35:50;98079.88;;;15.11;38.48
55317;BME280;41178;48.956;8.130;2024-03-02T18:40:52;98065.56;;;14.07;39.93
55317;BME280;41178;48.956;8.130;2024-03-02T18:45:55;98071.50;;;14.31;39.76
55317;BME280;41178;48.956;8.130;2024-03-02T18:50:57;98022.72;;;14.50;39.68
55317;BME280;41178;48.956;8.130;2024-03-02T18:55:59;98027.16;;;13.95;40.05
55317;BME280;41178;48.956;8.130;2024-03-02T19:01:00;98013.53;;;14.01;40.31
55317;BME280;41178;48.956;8.130;2024-03-02T19:06:02;98036.66;;;13.80;39.84
55317;BME280;41178;48.956;8.130;2024-03-02T19:11:04;97984.44;;;15.40;38.19
55317;BME280;41178;48.956;8.130;2024-03-02T19:16:10;98037.16;;;14.16;39.53
55317;BME280;41178;48.956;8.130;2024-03-02T19:21:13;98044.75;;;14.02;39.48
55317;BME280;41178;48.956;8.130;2024-03-02T19:26:15;98055.75;;;12.94;40.24
55317;BME280;41178;48.956;8.130;2024-03-02T19:31:20;97968.06;;;14.00;39.26
55317;BME280;41178;48.956;8.130;2024-03-02T19:36:22;98002.72;;;12.55;40.52
55317;BME280;41178;48.956;8.130;2024-03-02T19:41:24;97944.09;;;14.20;39.12
55317;BME280;41178;48.956;8.130;2024-03-02T19:46:26;97980.38;;;12.84;40.70
55317;BME280;41178;48.956;8.130;2024-03-02T19:51:28;97954.06;;;13.54;39.74
55317;BME280;41178;48.956;8.130;2024-03-02T19:56:30;97960.34;;;13.42;39.55
55317;BME280;41178;48.956;8.130;2024-03-02T20:01:32;97970.44;;;13.52;39.49
55317;BME280;41178;48.956;8.130;2024-03-02T20:06:34;97917.06;;;14.32;39.05
55317;BME280;41178;48.956;8.130;2024-03-02T20:11:36;97988.53;;;13.23;40.47
55317;BME280;41178;48.956;8.130;2024-03-02T20:16:44;97956.50;;;13.55;40.10
55317;BME280;41178;48.956;8.130;2024-03-02T20:21:46;98005.06;;;13.15;40.83
55317;BME280;41178;48.956;8.130;2024-03-02T20:26:48;97950.41;;;13.26;41.61
55317;BME280;41178;48.956;8.130;2024-03-02T20:31:50;97937.66;;;14.81;39.57
55317;BME280;41178;48.956;8.130;2024-03-02T20:36:51;97922.59;;;14.48;40.21
55317;BME280;41178;48.956;8.130;2024-03-02T20:41:53;97981.50;;;14.71;39.68
55317;BME280;41178;48.956;8.130;2024-03-02T20:46:55;97965.63;;;14.20;41.14
55317;BME280;41178;48.956;8.130;2024-03-02T20:51:57;98016.88;;;13.70;41.78
55317;BME280;41178;48.956;8.130;2024-03-02T20:57:01;97948.94;;;14.73;40.44
55317;BME280;41178;48.956;8.130;2024-03-02T21:02:07;98006.31;;;13.63;41.83
55317;BME280;41178;48.956;8.130;2024-03-02T21:07:09;97993.31;;;14.16;40.92
55317;BME280;41178;48.956;8.130;2024-03-02T21:12:10;97953.63;;;14.88;40.18
55317;BME280;41178;48.956;8.130;2024-03-02T21:17:12;97981.19;;;14.68;40.38
55317;BME280;41178;48.956;8.130;2024-03-02T21:22:14;98040.59;;;13.05;42.23
55317;BME280;41178;48.956;8.130;2024-03-02T21:27:16;97941.84;;;15.84;39.09
55317;BME280;41178;48.956;8.130;2024-03-02T21:32:21;98055.97;;;15.52;39.26
55317;BME280;41178;48.956;8.130;2024-03-02T21:37:23;98022.44;;;14.46;40.89
55317;BME280;41178;48.956;8.130;2024-03-02T21:42:25;98087.06;;;13.90;41.16
55317;BME280;41178;48.956;8.130;2024-03-02T21:47:27;97981.28;;;14.51;41.47
55317;BME280;41178;48.956;8.130;2024-03-02T21:52:28;98074.78;;;14.61;40.67
55317;BME280;41178;48.956;8.130;2024-03-02T21:57:30;98039.91;;;13.82;42.20
55317;BME280;41178;48.956;8.130;2024-03-02T22:02:32;97949.13;;;14.93;40.85
55317;BME280;41178;48.956;8.130;2024-03-02T22:07:34;97956.63;;;13.43;43.04
55317;BME280;41178;48.956;8.130;2024-03-02T22:12:36;98033.50;;;12.99;43.32
55317;BME280;41178;48.956;8.130;2024-03-02T22:17:37;98010.44;;;14.86;40.72
55317;BME280;41178;48.956;8.130;2024-03-02T22:22:39;97989.69;;;14.32;41.71
55317;BME280;41178;48.956;8.130;2024-03-02T22:27:42;97963.31;;;13.63;43.40
55317;BME280;41178;48.956;8.130;2024-03-02T22:32:44;97961.25;;;15.33;40.55
55317;BME280;41178;48.956;8.130;2024-03-02T22:37:46;97927.66;;;15.04;41.09
55317;BME280;41178;48.956;8.130;2024-03-02T22:42:47;97984.81;;;13.85;42.95
55317;BME280;41178;48.956;8.130;2024-03-02T22:47:49;97904.91;;;14.02;42.61
55317;BME280;41178;48.956;8.130;2024-03-02T22:52:52;97946.56;;;12.66;44.32
55317;BME280;41178;48.956;8.130;2024-03-02T22:57:54;97946.38;;;13.23;43.61
55317;BME280;41178;48.956;8.130;2024-03-02T23:02:58;97909.56;;;14.07;42.95
55317;BME280;41178;48.956;8.130;2024-03-02T23:07:59;97864.66;;;14.08;43.01
55317;BME280;41178;48.956;8.130;2024-03-02T23:13:01;97943.94;;;12.71;44.50
55317;BME280;41178;48.956;8.130;2024-03-02T23:18:03;97867.22;;;13.48;43.60
55317;BME280;41178;48.956;8.130;2024-03-02T23:23:05;97859.88;;;14.15;43.24
55317;BME280;41178;48.956;8.130;2024-03-02T23:28:07;97924.91;;;14.66;41.82
55317;BME280;41178;48.956;8.130;2024-03-02T23:33:09;97896.19;;;14.12;43.13
55317;BME280;41178;48.956;8.130;2024-03-02T23:38:13;97921.56;;;13.33;44.26
55317;BME280;41178;48.956;8.130;2024-03-02T23:43:15;97907.75;;;12.73;45.11
55317;BME280;41178;48.956;8.130;2024-03-02T23:48:16;97815.44;;;13.14;45.04
55317;BME280;41178;48.956;8.130;2024-03-02T23:53:18;97983.63;;;13.76;42.77
55317;BME280;41178;48.956;8.130;2024-03-02T23:58:21;97877.81;;;13.82;43.61
